Time;durP1;ratioP1;P1;durP2;ratioP2;P2;SDS_P1;SDS_P2;PMS_P1;PMS_P2;Temp;Humidity;BMP_temperature;BMP_pressure;BME280_temperature;BME280_humidity;BME280_pressure;Samples;Min_cycle;Max_cycle;Signal;HPM_P1;HPM_P2
2023/10/24 00:02:18;;;;;;;17.42;5.25;;;;;;;15.35;99.74;64576.53;5071758;28;20307;-54
2023/10/24 00:04:44;;;;;;;18.90;5.07;;;;;;;15.41;98.93;64581.13;5071849;28;20185;-54
2023/10/24 00:07:09;;;;;;;13.90;4.90;;;;;;;15.48;96.36;64588.84;5072046;28;20221;-54
2023/10/24 00:09:34;;;;;;;15.95;5.03;;;;;;;15.48;96.76;64586.31;5071787;28;20189;-54
2023/10/24 00:12:00;;;;;;;16.83;5.13;;;;;;;15.43;95.64;64585.88;5071214;28;20565;-55
2023/10/24 00:14:25;;;;;;;11.10;4.00;;;;;;;15.22;98.63;64559.69;5071599;28;20236;-54
2023/10/24 00:16:51;;;;;;;8.13;4.63;;;;;;;15.21;98.79;64561.13;5071424;28;20289;-56
2023/10/24 00:19:17;;;;;;;13.98;4.90;;;;;;;15.26;99.36;64567.16;5071595;28;20675;-56
2023/10/24 00:21:42;;;;;;;15.02;4.15;;;;;;;15.15;98.31;64553.06;5071516;28;20608;-56
2023/10/24 00:24:08;;;;;;;12.77;5.10;;;;;;;15.25;97.16;64560.44;5071491;28;20201;-59
2023/10/24 00:26:33;;;;;;;14.13;4.72;;;;;;;15.05;98.96;64542.09;5053385;28;20220;-56
2023/10/24 00:28:59;;;;;;;14.23;4.32;;;;;;;14.94;99.78;64526.91;5071328;28;20204;-57
2023/10/24 00:31:25;;;;;;;12.73;3.78;;;;;;;14.98;99.32;64534.41;5071069;28;20293;-56
2023/10/24 00:33:50;;;;;;;10.65;5.03;;;;;;;14.92;100.00;64530.34;5053202;28;20615;-56
2023/10/24 00:36:15;;;;;;;16.08;5.50;;;;;;;14.92;100.00;64524.72;5053035;28;20283;-60
2023/10/24 00:38:41;;;;;;;17.73;5.07;;;;;;;14.96;100.00;64534.19;5053623;28;20216;-56
2023/10/24 00:41:06;;;;;;;17.10;4.47;;;;;;;14.89;99.97;64524.50;5070987;28;20207;-56
2023/10/24 00:43:32;;;;;;;11.68;3.97;;;;;;;14.89;100.00;64526.47;5071258;28;20231;-56
2023/10/24 00:45:57;;;;;;;13.73;4.88;;;;;;;14.95;99.49;64533.63;5070638;28;20642;-56
2023/10/24 00:48:23;;;;;;;23.15;4.53;;;;;;;14.99;99.76;64535.50;5071318;28;20262;-60
2023/10/24 00:50:49;;;;;;;11.82;4.10;;;;;;;14.91;99.36;64526.69;5071061;28;20196;-57
2023/10/24 00:53:15;;;;;;;16.52;4.35;;;;;;;14.90;100.00;64530.13;5053319;28;20247;-58
2023/10/24 00:55:41;;;;;;;16.50;4.93;;;;;;;14.81;100.00;64515.69;5070935;28;20275;-57
2023/10/24 00:58:09;;;;;;;11.38;4.60;;;;;;;14.66;100.00;64498.66;5070785;28;20240;-53
2023/10/24 01:00:35;;;;;;;10.38;4.70;;;;;;;14.78;100.00;64514.94;5070691;28;20682;-54
2023/10/24 01:03:03;;;;;;;12.98;4.85;;;;;;;14.79;100.00;64515.50;5052949;28;20261;-55
2023/10/24 01:05:30;;;;;;;12.55;4.90;;;;;;;14.80;100.00;64514.63;5052665;28;20253;-53
2023/10/24 01:07:56;;;;;;;19.50;5.50;;;;;;;14.89;100.00;64521.97;5071088;28;20611;-53
2023/10/24 01:10:21;;;;;;;11.63;4.50;;;;;;;14.85;100.00;64522.63;5070703;28;20201;-52
2023/10/24 01:12:47;;;;;;;10.93;4.32;;;;;;;14.92;98.85;64529.78;5070694;28;20220;-52
2023/10/24 01:15:12;;;;;;;14.27;4.38;;;;;;;14.81;98.71;64515.69;5070700;28;20684;-53
2023/10/24 01:17:48;;;;;;;8.15;4.03;;;;;;;14.77;98.57;64508.78;5070625;28;20706;-53
2023/10/24 01:20:14;;;;;;;12.52;4.18;;;;;;;14.86;99.76;64520.66;5070461;28;20211;-54
2023/10/24 01:22:39;;;;;;;13.07;4.65;;;;;;;14.84;100.00;64519.00;5070322;28;20217;-52
2023/10/24 01:25:11;;;;;;;11.38;4.68;;;;;;;14.78;100.00;64512.41;5070470;28;20212;-55
2023/10/24 01:27:38;;;;;;;14.75;4.53;;;;;;;14.84;100.00;64518.44;5070765;28;20204;-52
2023/10/24 01:30:05;;;;;;;13.93;4.53;;;;;;;14.82;100.00;64518.78;5070367;28;20224;-53
2023/10/24 01:32:30;;;;;;;10.88;4.32;;;;;;;14.85;100.00;64520.09;5070197;28;20231;-55
2023/10/24 01:34:55;;;;;;;14.55;5.32;;;;;;;14.95;99.49;64531.09;5070658;28;20209;-57
2023/10/24 01:37:21;;;;;;;9.95;4.10;;;;;;;14.98;99.73;64536.38;5070476;28;20694;-56
2023/10/24 01:39:46;;;;;;;11.05;3.75;;;;;;;14.83;95.99;64517.91;5070379;28;20285;-55
2023/10/24 01:42:12;;;;;;;10.43;3.35;;;;;;;14.80;98.57;64516.59;5070345;28;20213;-54
2023/10/24 01:44:37;;;;;;;13.85;4.40;;;;;;;14.69;97.89;64505.06;5070335;28;20659;-55
2023/10/24 01:47:03;;;;;;;8.98;3.25;;;;;;;14.59;98.25;64494.06;5070266;28;20212;-58
2023/10/24 01:49:29;;;;;;;11.48;3.95;;;;;;;14.64;97.13;64494.50;5052204;28;20667;-52
2023/10/24 01:51:54;;;;;;;9.02;3.97;;;;;;;14.64;97.48;64499.00;5052169;28;20308;-57
2023/10/24 01:54:19;;;;;;;14.50;3.90;;;;;;;14.61;98.21;64496.25;5070285;28;20201;-59
2023/10/24 01:56:45;;;;;;;11.80;4.25;;;;;;;14.62;97.24;64494.28;5070250;28;20221;-54
2023/10/24 01:59:11;;;;;;;11.23;3.63;;;;;;;14.57;96.18;64488.78;5072018;28;20682;-53
2023/10/24 02:01:38;;;;;;;14.25;4.00;;;;;;;14.57;97.43;64486.22;5073593;28;20212;-53
2023/10/24 02:04:04;;;;;;;8.82;3.22;;;;;;;14.53;98.07;64487.47;5073775;28;20307;-53
2023/10/24 02:06:29;;;;;;;8.65;3.50;;;;;;;14.54;97.10;64485.47;5073706;28;20212;-53
2023/10/24 02:08:55;;;;;;;9.30;3.80;;;;;;;14.54;96.71;64485.47;5073398;28;20200;-53
2023/10/24 02:11:20;;;;;;;11.23;3.42;;;;;;;14.65;94.91;64498.13;5073448;28;20295;-54
2023/10/24 02:13:46;;;;;;;13.18;3.28;;;;;;;14.67;93.94;64500.31;5055391;28;20656;-53
2023/10/24 02:16:11;;;;;;;10.32;3.20;;;;;;;14.60;96.03;64492.63;5073292;28;20261;-53
2023/10/24 02:18:36;;;;;;;11.90;4.05;;;;;;;14.51;97.27;64484.72;5055514;28;20538;-53
2023/10/24 02:21:08;;;;;;;10.55;3.78;;;;;;;14.39;97.82;64471.53;5055343;28;20200;-53
2023/10/24 02:23:37;;;;;;;10.60;3.95;;;;;;;14.24;98.28;64455.59;5073264;28;20288;-52
2023/10/24 02:26:04;;;;;;;11.27;4.47;;;;;;;14.26;98.57;64455.25;5073195;28;20201;-53
2023/10/24 02:28:29;;;;;;;10.23;3.80;;;;;;;14.16;98.78;64447.34;5055226;28;20205;-52
2023/10/24 02:30:55;;;;;;;7.72;3.38;;;;;;;14.14;97.65;64442.59;5073441;28;20287;-55
2023/10/24 02:33:20;;;;;;;10.40;3.25;;;;;;;14.17;97.93;64445.34;5073471;28;20220;-56
2023/10/24 02:35:46;;;;;;;10.70;3.15;;;;;;;14.28;97.32;64460.53;5073396;28;20297;-55
2023/10/24 02:38:11;;;;;;;11.25;3.08;;;;;;;14.33;94.45;64465.50;5073187;28;20217;-56
2023/10/24 02:40:37;;;;;;;9.52;2.95;;;;;;;14.24;96.05;64450.53;5073123;28;20225;-56
2023/10/24 02:43:03;;;;;;;12.35;4.10;;;;;;;14.21;95.79;64450.31;5072803;28;20289;-55
2023/10/24 02:45:28;;;;;;;12.88;3.58;;;;;;;14.19;96.10;64445.56;5072867;28;20249;-56
2023/10/24 02:47:54;;;;;;;9.60;3.80;;;;;;;14.19;96.82;64450.09;5072824;28;20714;-55
2023/10/24 02:50:20;;;;;;;11.38;3.83;;;;;;;14.17;96.10;64448.44;5072953;28;20193;-55
2023/10/24 02:52:45;;;;;;;14.27;4.07;;;;;;;14.27;95.33;64458.88;5072585;28;20213;-55
2023/10/24 02:55:11;;;;;;;7.93;3.40;;;;;;;14.12;98.16;64442.94;5072986;28;20223;-55
2023/10/24 02:57:37;;;;;;;13.10;3.92;;;;;;;14.14;98.48;64444.59;5073171;28;20208;-55
2023/10/24 03:00:04;;;;;;;9.73;3.88;;;;;;;14.31;97.64;64460.75;5054805;28;20193;-55
2023/10/24 03:02:30;;;;;;;14.20;4.20;;;;;;;14.36;94.85;64468.78;5072912;28;20228;-56
2023/10/24 03:04:56;;;;;;;6.78;3.78;;;;;;;14.13;96.78;64441.53;5072975;28;20682;-55
2023/10/24 03:07:23;;;;;;;12.35;4.38;;;;;;;14.06;97.89;64436.34;5072461;28;20223;-56
2023/10/24 03:09:48;;;;;;;14.40;4.43;;;;;;;13.95;99.45;64424.28;5072350;28;20201;-55
2023/10/24 03:12:14;;;;;;;17.42;5.03;;;;;;;13.86;100.00;64413.84;5072519;28;20293;-56
2023/10/24 03:14:40;;;;;;;13.77;4.72;;;;;;;13.76;100.00;64403.41;5072501;28;20706;-56
2023/10/24 03:17:05;;;;;;;14.00;4.35;;;;;;;13.74;100.00;64398.13;5054479;28;20212;-55
2023/10/24 03:19:34;;;;;;;13.15;4.75;;;;;;;13.73;100.00;64397.03;5072377;28;20205;-52
2023/10/24 03:22:00;;;;;;;16.33;4.07;;;;;;;13.61;100.00;64388.94;5072557;28;20217;-53
2023/10/24 03:24:28;;;;;;;7.28;3.42;;;;;;;13.46;100.00;64371.03;5072429;28;20193;-54
2023/10/24 03:26:54;;;;;;;13.35;4.05;;;;;;;13.55;100.00;64379.81;5072421;28;20713;-53
2023/10/24 03:29:19;;;;;;;13.80;5.03;;;;;;;13.61;100.00;64383.88;5072231;28;20197;-53
2023/10/24 03:31:44;;;;;;;12.23;5.13;;;;;;;13.71;100.00;64397.94;5072131;28;20213;-52
2023/10/24 03:34:10;;;;;;;17.77;5.22;;;;;;;13.57;100.00;64384.53;5072410;28;20165;-53
2023/10/24 03:36:35;;;;;;;12.00;4.68;;;;;;;13.53;100.00;64377.59;5071943;28;20736;-54
2023/10/24 03:39:02;;;;;;;12.07;4.13;;;;;;;13.57;100.00;64382.00;5072213;28;20201;-53
2023/10/24 03:41:28;;;;;;;19.42;5.38;;;;;;;13.45;100.00;64366.84;5054450;28;20217;-53
2023/10/24 03:43:54;;;;;;;14.10;4.97;;;;;;;13.37;100.00;64361.13;5072011;28;20200;-54
2023/10/24 03:46:19;;;;;;;9.40;3.97;;;;;;;13.43;100.00;64367.72;5071984;28;20276;-52
2023/10/24 03:48:45;;;;;;;17.60;5.43;;;;;;;13.51;100.00;64372.88;5053923;28;20573;-52
2023/10/24 03:51:10;;;;;;;15.90;5.55;;;;;;;13.43;100.00;64369.72;5071605;28;20204;-53
2023/10/24 03:53:36;;;;;;;13.23;5.25;;;;;;;13.46;100.00;64371.03;5071916;28;20236;-53
2023/10/24 03:56:02;;;;;;;15.05;4.97;;;;;;;13.56;100.00;64380.91;5071661;28;20645;-53
2023/10/24 03:58:27;;;;;;;9.55;3.80;;;;;;;13.37;100.00;64363.66;5071767;28;20205;-53
2023/10/24 04:00:54;;;;;;;11.55;4.97;;;;;;;13.34;100.00;64357.31;5071616;28;20279;-55
2023/10/24 04:03:20;;;;;;;18.37;5.00;;;;;;;13.31;100.00;64354.00;5072096;28;20228;-55
2023/10/24 04:05:45;;;;;;;15.25;4.93;;;;;;;13.28;100.00;64351.25;5071928;28;20205;-60
2023/10/24 04:08:11;;;;;;;14.18;5.65;;;;;;;13.45;100.00;64369.38;5071749;28;20261;-55
2023/10/24 04:10:37;;;;;;;17.60;4.85;;;;;;;13.51;100.00;64375.97;5071596;28;20204;-56
2023/10/24 04:13:04;;;;;;;11.98;4.13;;;;;;;13.57;100.00;64379.47;5053304;28;20221;-56
2023/10/24 04:15:29;;;;;;;12.75;4.50;;;;;;;13.60;100.00;64385.28;5071475;28;20200;-53
2023/10/24 04:17:55;;;;;;;13.30;4.32;;;;;;;13.57;100.00;64380.03;5071374;28;20208;-54
2023/10/24 04:20:21;;;;;;;12.65;4.22;;;;;;;13.60;100.00;64380.78;5071262;28;20675;-58
2023/10/24 04:22:47;;;;;;;10.05;3.95;;;;;;;13.72;100.00;64398.47;5070327;28;20220;-52
2023/10/24 04:25:13;;;;;;;11.02;4.80;;;;;;;13.54;100.00;64376.72;5071368;28;20193;-52
2023/10/24 04:27:38;;;;;;;15.55;4.78;;;;;;;13.31;100.00;64351.47;5071234;28;20209;-52
2023/10/24 04:30:09;;;;;;;11.63;4.93;;;;;;;13.38;100.00;64359.72;5053373;28;20694;-53
2023/10/24 04:32:35;;;;;;;14.70;5.22;;;;;;;13.45;100.00;64369.38;5071479;28;20205;-53
2023/10/24 04:35:00;;;;;;;13.13;4.80;;;;;;;13.41;100.00;64365.00;5071286;28;20205;-53
2023/10/24 04:37:26;;;;;;;11.50;4.20;;;;;;;13.53;100.00;64378.16;5070937;28;20204;-52
2023/10/24 04:39:53;;;;;;;11.27;4.82;;;;;;;13.60;100.00;64385.28;5071230;28;20201;-52
2023/10/24 04:42:19;;;;;;;18.05;5.65;;;;;;;13.62;100.00;64384.94;5053056;28;20602;-52
2023/10/24 04:44:44;;;;;;;35.08;5.28;;;;;;;13.59;100.00;64384.19;5071099;28;20295;-53
2023/10/24 04:47:10;;;;;;;14.27;4.63;;;;;;;13.33;100.00;64353.69;5070733;28;20757;-52
2023/10/24 04:49:39;;;;;;;13.90;4.65;;;;;;;13.27;100.00;64350.16;5070988;28;20218;-53
2023/10/24 04:52:04;;;;;;;18.35;6.18;;;;;;;13.37;100.00;64361.13;5070990;28;20762;-54
2023/10/24 04:54:30;;;;;;;14.52;5.20;;;;;;;13.42;100.00;64364.09;5070967;28;20288;-54
2023/10/24 04:56:57;;;;;;;13.52;5.38;;;;;;;13.51;100.00;64370.91;5070763;28;20214;-59
2023/10/24 04:59:22;;;;;;;17.67;5.10;;;;;;;13.52;100.00;64374.53;5071036;28;20230;-54
2023/10/24 05:01:48;;;;;;;12.52;4.10;;;;;;;13.62;100.00;64382.41;5070019;28;20216;-54
2023/10/24 05:04:13;;;;;;;10.02;4.50;;;;;;;13.58;100.00;64383.09;5071226;28;20275;-54
2023/10/24 05:06:39;;;;;;;10.50;5.18;;;;;;;13.62;100.00;64388.03;5069083;28;20564;-55
2023/10/24 05:09:06;;;;;;;13.18;5.65;;;;;;;13.66;100.00;64394.97;5070936;28;20212;-55
2023/10/24 05:11:31;;;;;;;20.83;6.30;;;;;;;13.32;100.00;64355.66;5052580;28;20216;-56
2023/10/24 05:13:57;;;;;;;16.52;8.50;;;;;;;13.47;100.00;64372.13;5070774;28;20192;-55
2023/10/24 05:16:23;;;;;;;19.13;7.18;;;;;;;13.56;100.00;64380.91;5070753;28;20255;-55
2023/10/24 05:18:49;;;;;;;17.73;6.13;;;;;;;13.64;100.00;64389.69;5070944;28;20253;-55
2023/10/24 05:21:14;;;;;;;20.60;5.03;;;;;;;13.77;100.00;64401.44;5070629;28;20642;-57
2023/10/24 05:23:40;;;;;;;12.35;4.43;;;;;;;13.65;100.00;64388.81;5051221;28;20205;-57
2023/10/24 05:26:05;;;;;;;10.02;4.05;;;;;;;13.55;100.00;64377.81;5070567;28;20212;-54
2023/10/24 05:28:32;;;;;;;12.27;4.38;;;;;;;13.36;100.00;64360.03;5070598;28;20208;-55
2023/10/24 05:30:57;;;;;;;10.18;4.38;;;;;;;13.19;100.00;64338.84;5070560;28;20200;-53
2023/10/24 05:33:23;;;;;;;16.23;4.63;;;;;;;13.12;100.00;64336.25;5070633;28;20681;-54
2023/10/24 05:35:48;;;;;;;12.48;4.30;;;;;;;12.98;100.00;64315.78;5070783;28;20232;-55
2023/10/24 05:38:15;;;;;;;17.13;4.53;;;;;;;13.10;100.00;64328.44;5070378;28;20668;-54
2023/10/24 05:40:44;;;;;;;11.27;4.55;;;;;;;13.12;100.00;64333.16;5070703;28;20204;-54
2023/10/24 05:43:10;;;;;;;13.20;4.90;;;;;;;13.11;100.00;64332.59;5070370;28;20212;-58
2023/10/24 05:45:36;;;;;;;17.90;5.45;;;;;;;13.35;100.00;64356.41;5052529;28;20674;-55
2023/10/24 05:48:09;;;;;;;22.23;5.82;;;;;;;13.48;100.00;64370.69;5052385;28;20209;-56
2023/10/24 05:50:36;;;;;;;16.30;5.40;;;;;;;13.41;100.00;64365.00;5070273;28;20236;-54
2023/10/24 05:53:03;;;;;;;11.73;5.15;;;;;;;13.44;100.00;64365.75;5070129;28;20220;-55
2023/10/24 05:55:28;;;;;;;16.27;5.28;;;;;;;13.62;100.00;64385.50;5052334;28;20204;-55
2023/10/24 05:57:55;;;;;;;14.50;6.57;;;;;;;13.62;100.00;64384.94;5070089;28;20212;-55
2023/10/24 06:00:20;;;;;;;21.77;5.78;;;;;;;13.68;100.00;64391.53;5052505;28;20177;-55
2023/10/24 06:02:46;;;;;;;20.90;5.97;;;;;;;13.80;100.00;64407.25;5070414;28;20219;-53
2023/10/24 06:05:11;;;;;;;9.05;5.05;;;;;;;13.72;100.00;64399.00;5052187;28;20203;-53
2023/10/24 06:07:37;;;;;;;13.20;5.80;;;;;;;13.72;100.00;64395.94;5052155;28;20220;-53
2023/10/24 06:10:04;;;;;;;13.52;5.07;;;;;;;13.66;100.00;64391.88;5052181;28;20204;-53
2023/10/24 06:12:30;;;;;;;14.85;5.63;;;;;;;13.69;100.00;64393.19;5069819;28;20606;-54
2023/10/24 06:14:55;;;;;;;10.52;5.20;;;;;;;13.63;100.00;64389.16;5070094;28;20748;-53
2023/10/24 06:17:21;;;;;;;13.77;5.43;;;;;;;13.75;100.00;64402.31;5052023;28;20229;-53
2023/10/24 06:19:48;;;;;;;18.45;6.57;;;;;;;13.79;100.00;64406.72;5069935;28;20204;-56
2023/10/24 06:22:15;;;;;;;25.13;7.40;;;;;;;13.78;100.00;64405.03;5069999;28;20273;-53
2023/10/24 06:24:41;;;;;;;23.17;6.22;;;;;;;13.88;100.00;64414.06;5070002;28;20761;-53
2023/10/24 06:27:09;;;;;;;16.85;6.95;;;;;;;13.97;100.00;64420.84;5070030;28;20238;-53
2023/10/24 06:29:35;;;;;;;17.02;6.50;;;;;;;14.24;100.00;64456.13;5069689;28;20382;-53
2023/10/24 06:32:00;;;;;;;19.38;6.32;;;;;;;14.39;100.00;64471.53;5051738;28;20315;-54
2023/10/24 06:34:27;;;;;;;20.88;6.18;;;;;;;14.33;100.00;64465.50;5070180;28;20201;-55
2023/10/24 06:36:53;;;;;;;27.60;9.35;;;;;;;14.29;100.00;64461.66;5069754;28;20213;-54
2023/10/24 06:39:18;;;;;;;33.95;12.43;;;;;;;14.22;100.00;64450.84;5069842;28;20193;-52
2023/10/24 06:41:45;;;;;;;27.70;8.57;;;;;;;14.41;100.00;64474.28;5051709;28;20611;-55
2023/10/24 06:44:11;;;;;;;25.00;7.90;;;;;;;14.38;100.00;64468.47;5070215;28;20207;-54
2023/10/24 06:46:36;;;;;;;24.85;7.80;;;;;;;14.70;100.00;64506.16;5055374;28;20216;-53
2023/10/24 06:49:02;;;;;;;17.48;7.60;;;;;;;14.79;100.00;64512.94;5073272;28;20193;-54
2023/10/24 06:51:28;;;;;;;22.77;7.68;;;;;;;14.84;100.00;64521.00;5054406;28;20216;-53
2023/10/24 06:53:54;;;;;;;16.30;7.95;;;;;;;14.96;100.00;64532.19;5054950;28;20197;-55
2023/10/24 06:56:19;;;;;;;20.27;7.70;;;;;;;15.26;100.00;64564.63;5072666;28;20205;-53
2023/10/24 06:58:44;;;;;;;19.90;7.55;;;;;;;15.32;100.00;64573.78;5072848;28;20192;-55
2023/10/24 07:01:10;;;;;;;26.75;7.22;;;;;;;15.15;100.00;64555.63;5072622;28;20626;-56
2023/10/24 07:03:36;;;;;;;27.30;7.68;;;;;;;15.12;100.00;64549.78;5072848;28;20201;-54
2023/10/24 07:06:01;;;;;;;22.83;7.43;;;;;;;15.05;100.00;64544.63;5073081;28;20291;-57
2023/10/24 07:08:27;;;;;;;19.73;7.93;;;;;;;15.03;100.00;64542.44;5072796;28;20277;-54
2023/10/24 07:10:53;;;;;;;24.15;8.10;;;;;;;15.39;100.00;64580.91;5072948;28;20283;-54
2023/10/24 07:13:19;;;;;;;23.92;8.13;;;;;;;15.33;100.00;64571.78;5072566;28;20690;-55
2023/10/24 07:15:44;;;;;;;25.10;8.73;;;;;;;15.55;100.00;64596.00;5072856;28;20212;-55
2023/10/24 07:18:10;;;;;;;24.27;8.50;;;;;;;15.46;100.00;64586.09;5072672;28;20209;-53
2023/10/24 07:20:38;;;;;;;23.77;8.02;;;;;;;15.44;100.00;64586.97;5072474;28;20353;-53
2023/10/24 07:23:05;;;;;;;21.80;8.23;;;;;;;15.39;100.00;64580.91;5072508;28;20691;-53
2023/10/24 07:25:32;;;;;;;20.60;7.57;;;;;;;15.28;100.00;64566.81;5054636;28;20200;-53
2023/10/24 07:27:57;;;;;;;15.98;7.47;;;;;;;15.38;100.00;64580.38;5054488;28;20221;-57
2023/10/24 07:30:24;;;;;;;22.58;6.97;;;;;;;15.45;100.00;64587.53;5054483;28;20191;-54
2023/10/24 07:32:50;;;;;;;19.05;8.20;;;;;;;15.56;100.00;64597.09;5072866;28;20212;-54
2023/10/24 07:35:17;;;;;;;27.42;7.05;;;;;;;15.48;100.00;64585.75;5054306;28;20266;-62
2023/10/24 07:37:43;;;;;;;17.10;5.72;;;;;;;15.93;100.00;64635.25;5072336;28;20212;-57
2023/10/24 07:40:08;;;;;;;17.48;6.72;;;;;;;16.03;99.58;64651.34;5072407;28;20648;-53
2023/10/24 07:42:34;;;;;;;20.65;6.68;;;;;;;16.18;98.53;64665.31;5054350;28;20220;-59
2023/10/24 07:45:00;;;;;;;13.57;5.63;;;;;;;16.46;95.37;64693.59;5072448;28;20192;-57
2023/10/24 07:47:28;;;;;;;17.73;5.40;;;;;;;16.49;96.67;64702.00;5072110;28;20601;-53
2023/10/24 07:49:57;;;;;;;18.38;6.95;;;;;;;16.83;94.76;64736.34;5054647;28;20728;-54
2023/10/24 07:52:23;;;;;;;13.60;5.93;;;;;;;17.07;91.02;64760.22;5071946;28;20224;-53
2023/10/24 07:54:50;;;;;;;18.00;6.82;;;;;;;17.09;91.16;64761.91;5072177;28;20284;-54
2023/10/24 07:57:15;;;;;;;18.00;5.53;;;;;;;17.23;89.27;64780.41;5070510;28;20216;-54
2023/10/24 07:59:41;;;;;;;21.15;6.75;;;;;;;17.38;88.72;64796.38;5072119;28;20720;-54
2023/10/24 08:02:07;;;;;;;13.13;5.72;;;;;;;17.63;85.31;64823.97;5071995;28;20213;-54
2023/10/24 08:04:34;;;;;;;21.48;6.47;;;;;;;17.71;81.46;64832.78;5072170;28;20224;-55
2023/10/24 08:06:59;;;;;;;20.90;6.13;;;;;;;17.69;84.20;64830.56;5054799;22;20264;-58
2023/10/24 08:09:25;;;;;;;14.38;5.55;;;;;;;17.86;85.65;64848.75;5051769;28;20726;-56
2023/10/24 08:11:51;;;;;;;20.73;6.60;;;;;;;17.96;82.51;64857.78;5033703;28;20655;-54
2023/10/24 08:14:16;;;;;;;17.08;6.13;;;;;;;18.29;81.33;64896.16;5050567;28;20592;-61
2023/10/24 08:16:42;;;;;;;19.08;6.63;;;;;;;18.52;79.46;64921.56;5051873;28;20292;-53
2023/10/24 08:19:08;;;;;;;17.48;7.55;;;;;;;18.64;80.43;64931.69;5051669;28;20660;-55
2023/10/24 08:21:34;;;;;;;19.70;6.50;;;;;;;18.85;79.29;64957.41;5051609;28;20201;-54
2023/10/24 08:24:00;;;;;;;17.17;5.95;;;;;;;18.81;77.85;64950.44;5051599;28;20220;-54
2023/10/24 08:26:26;;;;;;;17.02;6.55;;;;;;;19.24;75.41;65000.47;5017457;28;20201;-53
2023/10/24 08:28:53;;;;;;;15.90;6.32;;;;;;;19.36;75.59;65011.16;5051591;28;20197;-53
2023/10/24 08:31:18;;;;;;;17.52;6.78;;;;;;;19.67;72.63;65047.97;5016881;28;20198;-52
2023/10/24 08:33:44;;;;;;;19.10;6.22;;;;;;;19.89;70.86;65069.69;5051458;28;20181;-52
2023/10/24 08:36:10;;;;;;;19.33;6.32;;;;;;;20.03;69.70;65087.72;5051522;28;20201;-52
2023/10/24 08:38:37;;;;;;;21.55;7.25;;;;;;;20.23;67.13;65106.72;5051384;28;20201;-51
2023/10/24 08:41:03;;;;;;;22.30;6.45;;;;;;;19.80;66.87;65062.31;5051266;28;20263;-53
2023/10/24 08:43:29;;;;;;;13.23;5.55;;;;;;;20.07;67.23;65089.59;5033201;28;20212;-53
2023/10/24 08:45:57;;;;;;;17.70;6.07;;;;;;;20.39;66.27;65123.84;5051303;28;20201;-53
2023/10/24 08:48:23;;;;;;;19.50;6.28;;;;;;;20.65;66.83;65153.13;5051095;28;20240;-52
2023/10/24 08:50:49;;;;;;;17.38;6.05;;;;;;;20.88;66.10;65178.56;5051140;28;20205;-52
2023/10/24 08:53:15;;;;;;;10.25;4.82;;;;;;;21.14;77.52;65206.78;5051040;28;20268;-55
2023/10/24 08:55:54;;;;;;;19.25;6.00;;;;;;;21.30;65.04;65221.91;5033188;28;20303;-55
2023/10/24 08:58:21;;;;;;;14.48;5.68;;;;;;;21.50;60.93;65246.59;5050821;28;20217;-55
2023/10/24 09:00:47;;;;;;;22.50;7.15;;;;;;;21.40;60.40;65238.09;5033313;28;20165;-56
2023/10/24 09:03:15;;;;;;;12.30;5.03;;;;;;;21.34;59.56;65225.75;5051284;28;20237;-55
2023/10/24 09:05:44;;;;;;;16.80;5.75;;;;;;;21.32;60.04;65226.69;5051247;28;20208;-58
2023/10/24 09:08:10;;;;;;;18.33;5.70;;;;;;;21.29;60.92;65222.81;5050461;28;20216;-56
2023/10/24 09:10:35;;;;;;;13.60;4.97;;;;;;;21.34;61.35;65228.34;5050959;28;20274;-55
2023/10/24 09:13:07;;;;;;;15.98;5.93;;;;;;;21.27;59.83;65220.59;5050744;28;20662;-54
2023/10/24 09:15:36;;;;;;;19.70;5.45;;;;;;;21.06;59.62;65194.81;5050854;28;20245;-55
2023/10/24 09:18:05;;;;;;;14.40;5.82;;;;;;;21.56;60.32;65252.66;5050691;28;20194;-55
2023/10/24 09:20:34;;;;;;;15.73;5.93;;;;;;;21.60;60.22;65255.09;5050671;28;20296;-56
2023/10/24 09:23:11;;;;;;;12.35;5.07;;;;;;;21.71;60.25;65269.25;5032640;28;20205;-56
2023/10/24 09:25:37;;;;;;;20.00;5.03;;;;;;;21.83;59.03;65282.56;5050563;28;20216;-55
2023/10/24 09:28:22;;;;;;;20.38;5.28;;;;;;;21.74;56.92;65272.56;5050893;28;20793;-55
2023/10/24 09:30:47;;;;;;;18.02;5.22;;;;;;;21.71;57.15;65269.25;5050700;28;20210;-56
2023/10/24 09:33:14;;;;;;;9.20;4.55;;;;;;;21.41;57.84;65236.63;5050655;28;20695;-56
2023/10/24 09:35:39;;;;;;;11.80;4.28;;;;;;;21.65;57.99;65260.06;5050640;28;20201;-54
2023/10/24 09:38:08;;;;;;;14.32;4.80;;;;;;;21.84;56.55;65278.53;5050408;28;20362;-55
2023/10/24 09:40:39;;;;;;;16.38;5.05;;;;;;;22.04;55.07;65305.25;5032714;28;20193;-55
2023/10/24 09:43:19;;;;;;;12.25;4.82;;;;;;;22.46;54.83;65352.28;5050765;28;20217;-56
2023/10/24 09:45:46;;;;;;;11.65;4.45;;;;;;;22.63;53.66;65370.56;5032484;28;20212;-55
2023/10/24 09:48:12;;;;;;;10.90;4.18;;;;;;;22.79;51.88;65387.72;5050650;28;20225;-57
2023/10/24 09:50:41;;;;;;;18.05;5.00;;;;;;;23.10;51.94;65422.06;5032373;28;20225;-55
2023/10/24 09:53:07;;;;;;;20.55;5.15;;;;;;;23.23;51.55;65436.47;5050302;28;20224;-55
2023/10/24 09:55:35;;;;;;;13.52;4.78;;;;;;;23.49;51.62;65462.19;5050318;28;20194;-57
2023/10/24 09:58:04;;;;;;;14.60;5.07;;;;;;;23.63;51.42;65480.81;5032100;28;20247;-56
2023/10/24 10:00:32;;;;;;;19.00;5.50;;;;;;;23.88;50.34;65507.97;5050135;28;20256;-55
2023/10/24 10:02:58;;;;;;;20.45;4.88;;;;;;;24.05;48.53;65526.84;5050190;28;20213;-56
2023/10/24 10:05:28;;;;;;;19.42;4.80;;;;;;;23.79;48.07;65495.97;5050092;28;20193;-55
2023/10/24 10:07:54;;;;;;;13.43;4.60;;;;;;;23.84;47.41;65504.09;5050617;28;20224;-54
2023/10/24 10:10:22;;;;;;;18.67;4.88;;;;;;;23.71;48.68;65489.13;5049918;28;20276;-56
2023/10/24 10:12:51;;;;;;;19.92;5.50;;;;;;;23.91;47.74;65511.28;5050091;28;20291;-54
2023/10/24 10:15:36;;;;;;;14.63;4.90;;;;;;;24.17;47.84;65540.69;5049889;28;20199;-55
2023/10/24 10:18:33;;;;;;;12.82;4.40;;;;;;;24.35;47.55;65560.09;5032004;28;20283;-56
2023/10/24 10:21:13;;;;;;;12.65;4.88;;;;;;;24.47;46.61;65570.28;5052541;28;20206;-56
2023/10/24 10:24:01;;;;;;;17.08;4.15;;;;;;;24.26;46.37;65550.09;5053187;28;20213;-57
2023/10/24 10:26:50;;;;;;;18.27;5.03;;;;;;;24.24;46.83;65547.88;5053153;28;20248;-55
2023/10/24 10:29:28;;;;;;;15.73;5.25;;;;;;;24.28;46.70;65549.75;5053208;28;20339;-58
2023/10/24 10:32:12;;;;;;;16.17;5.25;;;;;;;24.20;45.56;65543.47;5035164;28;20252;-55
2023/10/24 10:34:38;;;;;;;12.63;5.13;;;;;;;23.87;45.84;65504.28;5053295;28;20638;-54
2023/10/24 10:37:05;;;;;;;12.63;3.90;;;;;;;23.84;45.36;65503.53;5035345;28;20239;-54
2023/10/24 10:39:31;;;;;;;13.10;4.28;;;;;;;23.96;46.16;65514.25;5053160;28;20227;-53
2023/10/24 10:41:56;;;;;;;23.55;4.85;;;;;;;24.10;46.45;65532.94;5052799;28;20229;-54
2023/10/24 10:44:38;;;;;;;11.48;4.65;;;;;;;24.20;46.71;65540.34;5035153;28;20178;-55
2023/10/24 10:47:06;;;;;;;13.20;5.28;;;;;;;24.00;46.63;65521.25;5052954;28;20214;-54
2023/10/24 10:49:40;;;;;;;15.32;5.28;;;;;;;23.93;46.87;65514.06;5053065;28;20201;-54
2023/10/24 10:52:17;;;;;;;17.63;4.93;;;;;;;24.02;47.19;65523.47;5053112;28;20225;-54
2023/10/24 10:55:11;;;;;;;10.25;4.88;;;;;;;24.32;46.20;65556.75;5052914;28;20205;-53
2023/10/24 10:58:20;;;;;;;17.55;5.00;;;;;;;24.07;45.37;65526.47;5053068;28;20214;-55
2023/10/24 11:01:00;;;;;;;19.33;4.10;;;;;;;23.94;45.99;65512.03;5051580;28;20659;-53
2023/10/24 11:03:41;;;;;;;15.93;4.78;;;;;;;23.83;44.95;65503.00;5052518;28;20209;-53
2023/10/24 11:06:17;;;;;;;19.75;4.93;;;;;;;23.70;46.59;65488.56;5052716;28;20230;-53
2023/10/24 11:08:48;;;;;;;14.30;4.68;;;;;;;23.83;46.78;65503.00;5052611;28;20209;-53
2023/10/24 11:11:19;;;;;;;16.92;5.22;;;;;;;23.83;47.20;65503.00;5034427;28;20182;-52
2023/10/24 11:13:50;;;;;;;13.90;5.03;;;;;;;23.86;46.79;65508.88;5052844;28;20729;-51
2023/10/24 11:16:16;;;;;;;12.40;4.43;;;;;;;23.71;46.97;65491.69;5052557;28;20201;-54
2023/10/24 11:18:42;;;;;;;14.20;4.75;;;;;;;23.80;45.67;65502.22;5052427;28;20249;-55
2023/10/24 11:21:16;;;;;;;16.83;5.28;;;;;;;23.84;46.30;65500.94;5052335;28;20259;-54
2023/10/24 11:23:42;;;;;;;20.90;5.57;;;;;;;23.87;46.80;65507.41;5052348;28;20270;-54